Clarendon, Arkansas
Current Conditions -  °F | °C
As of 5:55 PM on Saturday 25 Oct 2014 (Local Time) from KSGT Reporting Station
Clear Clear  
Wind Chill: 81°   Ceiling: Unl
Heat Index: 82°   Visibility: 10mi
Dew Point: 64°   Wind: 8mph
Humidity: 58%   Direction: 230°SW
Pressure: 30.03"   Gusts: NA
Location:  34.69°N, 91.31°W
Report Text: KSGT 252255Z AUTO 23007KT 10SM CLR 27/18 A3003 RMK AO1
Loading
Personal Weather Stations






























Interactive Weather Map
Tropical Storm Tracking
New forecast layout! Learn more

10-Day Weather Forecast

Advertisements
Track Severe Weather on mobile